Aktuální počasí v Česku a ve světě - METAR

Seznam meteostanic umístěných nejčasteji na letišti v ČR a ve světě

Vyhledat místa podle abecedy:
A B C D E F G H I J K L M N O P Q R S T U V W X Y Z

Filtrovat:

ID stanice:
a/nebo
Název místa (fulltext):
 
Místo (ID)Naposledy načteno 
Gaborone (FBSK) 01.12.2020 08:00 UTC Zobrazit METAR
FBSK 010800Z 01003KT 300V090 9999 FEW035 SCT070 26/19 Q1015 NOSIG
Gaza (LVGZ) Zatím nenačteno  
Geneva (LSGG) 01.12.2020 07:50 UTC Zobrazit METAR
LSGG 010750Z 24008KT 7000 -RA FEW010 SCT025 BKN040 02/01 Q1018 NOSIG
George Town (MWCR) 01.12.2020 03:00 UTC Zobrazit METAR
MWCR 010300Z 00000KT 9999 FEW022 26/23 Q1015
Georgetown (SYCJ) 01.12.2020 08:00 UTC Zobrazit METAR
SYCJ 010800Z 17004KT 9000 -SHRA SCT017 SCT037 BKN070 23/23 Q1010 NOSIG
Gibraltar (LXGB) 01.12.2020 07:50 UTC Zobrazit METAR
LXGB 010750Z 03005KT 9999 FEW014 SCT250 16/12 Q1022 NOSIG RMK BLU BLU
Glasgow (EGPF) 30.11.2020 12:50 UTC Zobrazit METAR
EGPF 301250Z AUTO 29018G28KT 9999 FEW027 BKN034 08/04 Q1017
Gomel (UMGG) 30.08.2014 17:00 UTC Zobrazit METAR
UMGG 301700Z CAVOK 19/10 Q1017 R28/CLRD// NOSIG
Goteborg (ESGG) 01.12.2020 07:50 UTC Zobrazit METAR
ESGG 010750Z 12006KT 5000 BR BKN017 00/M00 Q1016 R21/29//95
Grand Turk Island (MBGT) 30.11.2020 22:00 UTC Zobrazit METAR
MBGT 302200Z 09005KT 9999 SCT015 SCT050 25/19 Q1014
Graz (LOWG) 30.11.2020 17:50 UTC Zobrazit METAR
LOWG 301750Z 34003KT 9999 FEW060 M01/M03 Q1025 R17/15//95 BECMG 4000
Grodno (UMMG) Zatím nenačteno  
Guatemala City (MGGT) 01.12.2020 08:00 UTC Zobrazit METAR
MGGT 010800Z 02008KT CAVOK 15/12 Q1026 A3030 FEW200
Reklama


Další české internetové stránky (nejen) o počasí najdete v katalogu TOPlist - weby o počasí nebo vyhledejte na internetu, co jste tu na 🌞 Slunečnu ⛅ zatím nenašli:
⭐ Přidat Slunečno.cz do oblíbených | 🏠 Nastavit Slunečno.cz jako HOMEPAGE

⬆️ Posunout stránku nahoru ⬆️
Reklama